Carroll County Information

FAA: HZD - ICAO: KHZD

Carroll County (Airport) Location

State Tennessee
County Carroll
City Huntingdon
Carroll County (Airport) is 4 miles northwest of Huntingdon, TN.
Latitude 36-05-21.4705N
Longitude 088-27-47.8756W
Elevation 496ft

Carroll County METARs

METAR KHZD 262255Z AUTO 00000KT 10SM CLR M00/M17 A3037 RMK A01
Altimeter 30.37"
Temperature 0.0°C (32.0°F)
Wind 0° at 0KT
Clouds Skies are clear.
Visibility 10.0mi
Time observed: 2022-01-26T22:55:00Z

Carroll County (Airport) Details

Status Operational
Activation June 1987
Ownership Public
Usage Public
Chart MEMPHIS
ATC on-site No
Beacon schedule sunset-sunrise
Beacon color clear green

Carroll County (Airport) Contacts

Owner CARROLL COUNTY, TENNESSEE
Owner address 625 HIGH STREET, SUITE 101, HUNTINGDON, TN 38344
Owner phone 731-986-1936
Manager PAUL ROBERTSON
Manager address 1108 HARVEY ROAD, KNOXVILLE, TN 37922
Manager phone 865-966-1649

Carroll County Radio Frequencies

Carroll County (Airport) Radio Frequencies

UNICOM 122.8
Common traffic advisory frequency (CTAF) 122.8